Time;durP1;ratioP1;P1;durP2;ratioP2;P2;SDS_P1;SDS_P2;PMS_P1;PMS_P2;Temp;Humidity;BMP_temperature;BMP_pressure;BME280_temperature;BME280_humidity;BME280_pressure;Samples;Min_cycle;Max_cycle;Signal;HPM_P1;HPM_P2
2023/12/15 04:00:37;;;;;;;0.70;0.70;;;25.30;27.60;;;;;;6181175;22;45865;31
2023/12/15 04:03:14;;;;;;;0.70;0.70;;;25.30;27.60;;;;;;4932217;28;45408;-81
2023/12/15 04:05:40;;;;;;;0.75;0.75;;;25.20;27.50;;;;;;4963017;28;44797;-80
2023/12/15 04:08:06;;;;;;;0.50;0.50;;;25.20;27.50;;;;;;4960159;28;47449;-88
2023/12/15 04:10:33;;;;;;;0.55;0.55;;;25.30;27.60;;;;;;4964345;28;44796;-80
2023/12/15 04:12:59;;;;;;;0.55;0.55;;;25.20;27.50;;;;;;4962806;28;45339;-81
2023/12/15 04:15:30;;;;;;;1.33;0.70;;;25.20;27.50;;;;;;4925869;28;44746;-95
2023/12/15 04:18:05;;;;;;;0.63;0.63;;;25.20;27.50;;;;;;4946987;28;46157;-80
2023/12/15 04:20:31;;;;;;;0.80;0.80;;;25.20;27.50;;;;;;4980883;28;44689;-84
2023/12/15 04:22:58;;;;;;;0.60;0.60;;;25.20;27.50;;;;;;4965686;28;45239;-85
2023/12/15 04:25:24;;;;;;;0.60;0.60;;;25.20;27.50;;;;;;4949815;28;45323;-84
2023/12/15 04:27:50;;;;;;;0.65;0.65;;;25.20;27.50;;;;;;4966641;28;46812;-86
2023/12/15 04:30:15;;;;;;;0.60;0.60;;;25.20;27.50;;;;;;4964330;28;45485;-84
2023/12/15 04:32:41;;;;;;;0.80;0.73;;;25.20;27.50;;;;;;4960789;28;45433;-79
2023/12/15 04:35:07;;;;;;;0.70;0.60;;;25.20;27.50;;;;;;4994174;28;44774;-94
2023/12/15 04:37:34;;;;;;;0.60;0.60;;;25.20;27.50;;;;;;4945311;28;45211;-86
2023/12/15 04:40:01;;;;;;;0.70;0.70;;;25.20;27.50;;;;;;4961983;28;45458;-82
2023/12/15 04:42:28;;;;;;;0.70;0.70;;;25.20;27.50;;;;;;4959283;28;45292;-82
2023/12/15 04:44:54;;;;;;;0.68;0.68;;;25.20;27.50;;;;;;4996590;28;45230;-83
2023/12/15 04:47:21;;;;;;;0.90;0.80;;;25.20;27.50;;;;;;4960135;28;46968;-82
2023/12/15 04:49:47;;;;;;;0.70;0.70;;;25.20;27.50;;;;;;4950069;28;45209;-86
2023/12/15 04:52:13;;;;;;;1.00;0.80;;;25.10;27.40;;;;;;4973678;28;44755;-80
2023/12/15 04:54:39;;;;;;;0.60;0.60;;;25.10;27.50;;;;;;4966481;28;45313;-84
2023/12/15 04:57:05;;;;;;;1.35;0.70;;;25.10;27.40;;;;;;4997395;28;46270;-80
2023/12/15 04:59:31;;;;;;;0.80;0.70;;;25.10;27.40;;;;;;4985507;28;45448;-85
2023/12/15 05:01:57;;;;;;;0.70;0.70;;;25.10;27.40;;;;;;4994290;28;45389;-86
2023/12/15 05:04:23;;;;;;;1.00;0.82;;;25.10;27.40;;;;;;4987527;28;45381;-79
2023/12/15 05:06:49;;;;;;;0.70;0.70;;;25.10;27.40;;;;;;5017187;28;45369;-86
2023/12/15 05:09:16;;;;;;;0.80;0.80;;;25.10;27.50;;;;;;5005102;28;45254;-79
2023/12/15 05:11:44;;;;;;;0.70;0.70;;;25.10;27.40;;;;;;5002961;28;45239;-78
2023/12/15 05:14:10;;;;;;;0.70;0.70;;;25.10;27.40;;;;;;4971543;28;45184;-80
2023/12/15 05:16:39;;;;;;;0.70;0.70;;;25.10;27.40;;;;;;4999460;28;45870;-82
2023/12/15 05:19:05;;;;;;;0.90;0.90;;;25.10;27.40;;;;;;4969888;28;45242;-79
2023/12/15 05:21:32;;;;;;;0.73;0.73;;;25.10;27.50;;;;;;4991330;28;44879;-84
2023/12/15 05:23:59;;;;;;;0.80;0.80;;;25.00;27.40;;;;;;4979531;28;45211;-84
2023/12/15 05:26:28;;;;;;;0.95;0.90;;;25.00;27.40;;;;;;4978186;28;45165;-85
2023/12/15 05:28:54;;;;;;;1.10;0.93;;;25.00;27.40;;;;;;5003317;28;46050;-85
2023/12/15 05:31:20;;;;;;;1.00;1.00;;;25.00;27.40;;;;;;4996584;28;44860;-83
2023/12/15 05:33:46;;;;;;;1.60;1.10;;;25.00;27.40;;;;;;4998880;28;45416;-84
2023/12/15 05:36:19;;;;;;;1.00;0.90;;;25.00;27.50;;;;;;4978228;28;45504;-83
2023/12/15 05:39:04;;;;;;;0.90;0.90;;;25.00;27.40;;;;;;4984242;28;44986;-86
2023/12/15 05:41:30;;;;;;;0.90;0.90;;;25.00;27.40;;;;;;4987816;28;44750;-82
2023/12/15 05:43:56;;;;;;;1.05;1.00;;;25.00;27.50;;;;;;5003274;28;44736;-84
2023/12/15 05:46:22;;;;;;;1.10;1.00;;;25.00;27.40;;;;;;4990334;28;45313;-81
2023/12/15 05:48:47;;;;;;;1.10;1.00;;;25.00;27.90;;;;;;4971971;28;45187;-87
2023/12/15 05:51:14;;;;;;;1.00;1.00;;;25.00;27.40;;;;;;5001043;28;45451;-83
2023/12/15 05:53:40;;;;;;;0.80;0.80;;;25.00;27.40;;;;;;4987810;28;45437;-81
2023/12/15 05:56:08;;;;;;;0.80;0.80;;;24.90;27.40;;;;;;5018714;28;45248;-79
2023/12/15 05:58:34;;;;;;;1.20;0.90;;;25.00;27.50;;;;;;5003128;28;44764;-80
2023/12/15 06:01:00;;;;;;;0.90;0.90;;;24.90;27.40;;;;;;4986155;28;45008;-93
2023/12/15 06:03:26;;;;;;;1.30;1.20;;;24.90;27.50;;;;;;4997533;28;45241;-87
2023/12/15 06:05:52;;;;;;;1.15;1.05;;;24.90;27.50;;;;;;4978744;28;45614;-82
2023/12/15 06:08:20;;;;;;;1.07;1.07;;;25.00;27.50;;;;;;5002893;28;63669;-83
2023/12/15 06:10:48;;;;;;;1.30;1.20;;;24.90;27.50;;;;;;4999003;28;45349;-83
2023/12/15 06:13:13;;;;;;;1.00;1.00;;;24.90;27.50;;;;;;5003298;28;45303;-84
2023/12/15 06:15:39;;;;;;;1.10;1.02;;;24.90;27.50;;;;;;5002430;28;46477;-78
2023/12/15 06:18:05;;;;;;;1.00;1.00;;;24.90;27.50;;;;;;4985652;28;45303;-85
2023/12/15 06:20:31;;;;;;;1.20;1.10;;;24.90;27.50;;;;;;4964024;28;45310;-79
2023/12/15 06:22:57;;;;;;;1.02;1.02;;;24.90;27.50;;;;;;5003843;28;45277;-83
2023/12/15 06:25:23;;;;;;;1.53;1.43;;;24.90;27.50;;;;;;4986877;28;45214;-83
2023/12/15 06:27:49;;;;;;;1.00;1.00;;;24.90;27.50;;;;;;4987596;28;45013;-79
2023/12/15 06:30:15;;;;;;;1.30;1.20;;;24.90;27.50;;;;;;4985043;28;45408;-81
2023/12/15 06:32:41;;;;;;;1.38;1.27;;;24.90;27.50;;;;;;4987171;28;45409;-80
2023/12/15 06:35:10;;;;;;;1.30;1.20;;;24.90;27.50;;;;;;5000662;28;45679;-94
2023/12/15 06:37:36;;;;;;;1.20;1.10;;;24.80;27.50;;;;;;4998007;28;45190;-79
2023/12/15 06:40:03;;;;;;;1.23;1.13;;;24.90;27.50;;;;;;4969046;28;45202;-80
2023/12/15 06:42:32;;;;;;;1.38;1.27;;;24.80;27.50;;;;;;4957980;28;45367;-80
2023/12/15 06:45:04;;;;;;;1.30;1.20;;;24.80;27.50;;;;;;4991252;28;46517;-83
2023/12/15 06:47:36;;;;;;;1.30;1.20;;;24.80;27.50;;;;;;4998186;28;44916;-83
2023/12/15 06:50:01;;;;;;;1.40;1.30;;;24.80;27.50;;;;;;4986758;28;44726;-86
2023/12/15 06:52:27;;;;;;;1.30;1.20;;;24.80;27.50;;;;;;4988969;28;44828;-85
2023/12/15 06:54:53;;;;;;;1.70;1.30;;;24.80;27.50;;;;;;4973980;28;45991;-79
2023/12/15 06:57:18;;;;;;;1.42;1.33;;;24.80;27.50;;;;;;4971898;28;45347;-80
2023/12/15 06:59:44;;;;;;;1.40;1.30;;;24.80;27.70;;;;;;4994150;28;44974;-81
2023/12/15 07:02:11;;;;;;;1.40;1.30;;;24.80;27.50;;;;;;4996790;28;44974;-80
2023/12/15 07:04:37;;;;;;;1.50;1.40;;;24.80;27.50;;;;;;4972954;28;47128;-80
2023/12/15 07:07:04;;;;;;;1.45;1.35;;;24.80;27.50;;;;;;4999000;28;45246;-84
2023/12/15 07:09:32;;;;;;;1.50;1.40;;;24.80;27.50;;;;;;4988480;28;45474;-82
2023/12/15 07:11:58;;;;;;;1.60;1.50;;;24.80;27.50;;;;;;4999647;28;45292;-83
2023/12/15 07:14:24;;;;;;;1.58;1.48;;;24.80;27.50;;;;;;4986835;28;45388;-83
2023/12/15 07:16:50;;;;;;;1.27;1.17;;;24.70;27.50;;;;;;4985632;28;45113;-80
2023/12/15 07:19:15;;;;;;;1.48;1.20;;;24.70;27.50;;;;;;4987958;28;44887;-83
2023/12/15 07:21:41;;;;;;;1.60;1.50;;;24.70;27.60;;;;;;4972876;28;45191;-81
2023/12/15 07:24:07;;;;;;;1.27;1.17;;;24.70;27.50;;;;;;4988077;28;46198;-88
2023/12/15 07:26:33;;;;;;;1.70;1.60;;;24.70;27.50;;;;;;4983039;28;45471;-81
2023/12/15 07:28:58;;;;;;;1.88;1.50;;;24.60;27.50;;;;;;5004692;28;45259;-86
2023/12/15 07:31:24;;;;;;;1.83;1.40;;;24.60;27.50;;;;;;5001708;28;45298;-87
2023/12/15 07:33:50;;;;;;;1.50;1.40;;;24.70;27.50;;;;;;4989481;28;45250;-80
2023/12/15 07:36:16;;;;;;;1.55;1.40;;;24.70;27.50;;;;;;4986610;28;45196;-81
2023/12/15 07:38:42;;;;;;;1.77;1.48;;;24.70;27.50;;;;;;4984796;28;45253;-83
2023/12/15 07:41:08;;;;;;;1.33;1.23;;;24.70;27.60;;;;;;4986293;28;45442;-79
2023/12/15 07:43:34;;;;;;;1.52;1.42;;;24.60;27.50;;;;;;4986507;28;46942;-81
2023/12/15 07:46:00;;;;;;;1.50;1.40;;;24.60;27.50;;;;;;5001121;28;45155;-80
2023/12/15 07:48:26;;;;;;;1.58;1.48;;;24.70;27.60;;;;;;4989426;28;44808;-79
2023/12/15 07:50:54;;;;;;;1.42;1.30;;;24.60;27.50;;;;;;4986949;28;45650;-85
2023/12/15 07:53:20;;;;;;;1.50;1.40;;;24.60;27.50;;;;;;4983549;28;45503;-85
2023/12/15 07:55:47;;;;;;;1.63;1.52;;;24.60;27.50;;;;;;4987325;28;45480;-85
2023/12/15 07:58:13;;;;;;;1.73;1.53;;;24.60;27.50;;;;;;4987066;28;44973;-83
2023/12/15 08:00:38;;;;;;;1.67;1.58;;;24.60;27.50;;;;;;4983993;28;44941;-85
2023/12/15 08:03:04;;;;;;;1.40;1.30;;;24.60;27.50;;;;;;5007842;28;45555;-85
2023/12/15 08:05:31;;;;;;;1.73;1.63;;;24.60;27.60;;;;;;5000080;28;44735;-82
2023/12/15 08:07:58;;;;;;;2.00;1.60;;;24.60;27.60;;;;;;5001784;28;45333;-82
2023/12/15 08:10:26;;;;;;;2.50;1.53;;;24.50;27.50;;;;;;4964788;28;45565;-83
2023/12/15 08:12:52;;;;;;;1.60;1.50;;;24.60;27.60;;;;;;4982083;28;45976;-79
2023/12/15 08:15:19;;;;;;;1.50;1.40;;;24.50;27.60;;;;;;4998711;28;44681;-91
2023/12/15 08:17:45;;;;;;;1.40;1.30;;;24.50;27.60;;;;;;4986582;28;45248;-82
2023/12/15 08:20:12;;;;;;;1.70;1.60;;;24.50;27.50;;;;;;4999530;28;44815;-83
2023/12/15 08:22:38;;;;;;;1.63;1.53;;;24.50;27.60;;;;;;4987105;28;46570;-81
2023/12/15 08:25:06;;;;;;;1.67;1.50;;;24.50;27.60;;;;;;5003953;28;45300;-92
2023/12/15 08:27:34;;;;;;;2.67;1.70;;;24.50;27.60;;;;;;4995734;28;45102;-79
2023/12/15 08:30:00;;;;;;;1.70;1.60;;;24.50;27.60;;;;;;4986365;28;45194;-81
2023/12/15 08:32:26;;;;;;;2.10;1.80;;;24.50;27.60;;;;;;4984492;28;46161;-81
2023/12/15 08:34:52;;;;;;;1.50;1.40;;;24.40;27.50;;;;;;5000487;28;45446;-83
2023/12/15 08:37:18;;;;;;;2.23;1.73;;;24.50;27.60;;;;;;4984467;28;44761;-86
2023/12/15 08:39:44;;;;;;;1.63;1.52;;;24.40;27.60;;;;;;5003207;28;44905;-84
2023/12/15 08:42:10;;;;;;;2.00;1.60;;;24.50;27.60;;;;;;4968544;28;46200;-82
2023/12/15 08:44:35;;;;;;;1.90;1.50;;;24.40;27.60;;;;;;4992024;28;44965;-86
2023/12/15 08:47:01;;;;;;;1.70;1.60;;;24.40;27.60;;;;;;5014013;28;45320;-79
2023/12/15 08:49:27;;;;;;;1.73;1.60;;;24.40;27.60;;;;;;4986068;28;44709;-82
2023/12/15 08:51:53;;;;;;;1.60;1.50;;;24.40;27.60;;;;;;4976840;28;45843;-81
2023/12/15 08:54:19;;;;;;;1.63;1.52;;;24.40;27.60;;;;;;4991632;28;45187;-86
2023/12/15 08:56:44;;;;;;;1.73;1.57;;;24.40;27.60;;;;;;5004535;28;45174;-87
2023/12/15 08:59:10;;;;;;;2.50;2.00;;;24.40;27.60;;;;;;4987017;28;45558;-82
2023/12/15 09:01:37;;;;;;;1.40;1.30;;;24.40;27.60;;;;;;4977972;28;45671;-81
2023/12/15 09:04:03;;;;;;;2.17;1.50;;;24.40;27.60;;;;;;4970930;28;45457;-81
2023/12/15 09:06:29;;;;;;;1.92;1.73;;;24.40;27.60;;;;;;4998544;28;45192;-82
2023/12/15 09:08:55;;;;;;;1.75;1.60;;;24.40;27.70;;;;;;4986333;28;45144;-82
2023/12/15 09:11:20;;;;;;;2.00;1.50;;;24.40;27.70;;;;;;4965317;28;45407;-85
2023/12/15 09:13:46;;;;;;;2.60;1.60;;;24.30;27.70;;;;;;4994295;28;45222;-84
2023/12/15 09:16:12;;;;;;;1.63;1.50;;;24.30;27.60;;;;;;4959585;28;45209;-86
2023/12/15 09:18:38;;;;;;;1.63;1.52;;;24.40;27.70;;;;;;4979443;28;44915;-85
2023/12/15 09:21:05;;;;;;;2.05;1.80;;;24.30;27.70;;;;;;4967316;28;47184;-81
2023/12/15 09:23:31;;;;;;;1.58;1.48;;;24.30;27.70;;;;;;4986609;28;45008;-84
2023/12/15 09:26:02;;;;;;;1.50;1.40;;;24.30;27.70;;;;;;5000962;28;45174;-81
2023/12/15 09:28:28;;;;;;;1.92;1.73;;;24.30;27.70;;;;;;4985769;28;45345;-86
2023/12/15 09:30:54;;;;;;;1.83;1.73;;;24.30;27.70;;;;;;4964271;28;45420;-82
2023/12/15 09:33:20;;;;;;;1.93;1.67;;;24.30;27.70;;;;;;4968111;28;45236;-81
2023/12/15 09:35:47;;;;;;;1.83;1.63;;;24.30;27.70;;;;;;4978972;28;44587;-80
2023/12/15 09:38:13;;;;;;;1.70;1.60;;;24.30;27.70;;;;;;4983870;28;45390;-84
2023/12/15 09:40:39;;;;;;;1.70;1.60;;;24.30;27.70;;;;;;4979827;28;45290;-81
2023/12/15 09:43:05;;;;;;;1.87;1.67;;;24.30;27.80;;;;;;4967744;28;44848;-86
2023/12/15 09:45:32;;;;;;;2.03;1.70;;;24.30;27.80;;;;;;4982052;28;45290;-80
2023/12/15 09:47:58;;;;;;;2.38;1.70;;;24.30;27.80;;;;;;4999118;28;45419;-82
2023/12/15 09:50:24;;;;;;;2.10;1.70;;;24.30;27.80;;;;;;4980918;28;46980;-82
2023/12/15 09:52:50;;;;;;;1.83;1.63;;;24.30;27.80;;;;;;4974347;28;45435;-83
2023/12/15 09:55:17;;;;;;;1.60;1.50;;;24.20;27.70;;;;;;4981708;28;45299;-81
2023/12/15 09:57:44;;;;;;;1.80;1.70;;;24.20;27.70;;;;;;4968647;28;45239;-81
2023/12/15 10:00:10;;;;;;;2.00;1.50;;;24.20;27.80;;;;;;4969098;28;46263;-88
2023/12/15 10:02:36;;;;;;;1.77;1.67;;;24.20;28.30;;;;;;4987368;28;44726;-80
2023/12/15 10:05:13;;;;;;;2.90;1.80;;;24.20;27.80;;;;;;4982439;28;45645;-96
2023/12/15 10:07:39;;;;;;;2.00;1.58;;;24.20;27.80;;;;;;4969390;28;45483;-85
2023/12/15 10:10:07;;;;;;;1.90;1.60;;;24.20;27.80;;;;;;4967202;28;45927;-88
2023/12/15 10:12:34;;;;;;;1.70;1.60;;;24.20;27.80;;;;;;4966323;28;45284;-81
2023/12/15 10:14:59;;;;;;;1.80;1.60;;;24.20;27.80;;;;;;4971291;28;45353;-86
2023/12/15 10:17:25;;;;;;;1.90;1.70;;;24.20;27.80;;;;;;4973122;28;45262;-86
2023/12/15 10:20:06;;;;;;;1.60;1.50;;;24.10;27.80;;;;;;4982658;28;46236;-87
2023/12/15 10:22:33;;;;;;;2.58;1.67;;;24.10;27.80;;;;;;4956194;28;44683;-83
2023/12/15 10:24:58;;;;;;;1.60;1.50;;;24.10;27.80;;;;;;4985821;28;45291;-88
2023/12/15 10:27:25;;;;;;;2.10;1.60;;;24.10;27.80;;;;;;4997288;28;45266;-83
2023/12/15 10:29:51;;;;;;;1.88;1.60;;;24.10;27.90;;;;;;4968581;28;46144;-82
2023/12/15 10:32:18;;;;;;;1.92;1.70;;;24.10;27.90;;;;;;4980084;28;44709;-90
2023/12/15 10:34:44;;;;;;;1.63;1.50;;;24.10;27.90;;;;;;4965090;28;45600;-83
2023/12/15 10:37:10;;;;;;;1.83;1.73;;;24.10;27.90;;;;;;4968792;28;45409;-80
2023/12/15 10:39:37;;;;;;;3.25;1.70;;;24.10;27.90;;;;;;4987550;28;45290;-80
2023/12/15 10:42:03;;;;;;;1.83;1.60;;;24.10;27.90;;;;;;4980704;28;45007;-83
2023/12/15 10:44:29;;;;;;;2.38;1.52;;;24.10;27.90;;;;;;4972964;28;45516;-81
2023/12/15 10:46:55;;;;;;;1.83;1.70;;;24.10;28.00;;;;;;4961157;28;45386;-87
2023/12/15 10:49:21;;;;;;;2.47;1.63;;;24.10;28.00;;;;;;4984434;28;46794;-82
2023/12/15 10:51:48;;;;;;;1.88;1.73;;;24.10;28.00;;;;;;4978825;28;45215;-81
2023/12/15 10:54:13;;;;;;;1.92;1.60;;;24.00;27.90;;;;;;4981132;28;45375;-86
2023/12/15 10:56:39;;;;;;;2.13;1.80;;;24.00;27.90;;;;;;4973192;28;45640;-85
2023/12/15 10:59:06;;;;;;;1.75;1.65;;;24.00;27.90;;;;;;4966263;28;46138;-89
2023/12/15 11:01:33;;;;;;;1.50;1.40;;;24.00;28.00;;;;;;4978654;28;45208;-87
2023/12/15 11:03:59;;;;;;;1.40;1.30;;;24.00;28.00;;;;;;4980424;28;45258;-88
2023/12/15 11:06:34;;;;;;;2.17;1.80;;;24.00;28.00;;;;;;4962850;28;45583;-87
2023/12/15 11:09:00;;;;;;;1.93;1.73;;;24.00;28.00;;;;;;4980427;28;45119;-81
2023/12/15 11:11:27;;;;;;;1.63;1.52;;;24.00;28.00;;;;;;4965213;28;44747;-82
2023/12/15 11:14:01;;;;;;;1.85;1.65;;;24.00;28.00;;;;;;4964104;28;45349;-80
2023/12/15 11:16:36;;;;;;;1.67;1.58;;;24.00;28.00;;;;;;4977990;28;44725;-81
2023/12/15 11:19:02;;;;;;;2.10;1.60;;;24.00;28.10;;;;;;4971883;28;45334;-83
2023/12/15 11:21:28;;;;;;;2.00;1.40;;;24.00;28.10;;;;;;4946256;28;45238;-91
2023/12/15 11:24:06;;;;;;;1.95;1.70;;;23.90;28.00;;;;;;4965781;28;45559;-79
2023/12/15 11:26:33;;;;;;;1.70;1.60;;;23.90;28.00;;;;;;4988632;28;45488;-86
2023/12/15 11:29:09;;;;;;;1.73;1.60;;;23.90;28.10;;;;;;4965189;28;45274;-81
2023/12/15 11:31:36;;;;;;;1.70;1.60;;;23.90;28.10;;;;;;4978346;28;45174;-83
2023/12/15 11:34:03;;;;;;;1.73;1.60;;;23.90;28.10;;;;;;4993903;28;45213;-86
2023/12/15 11:36:30;;;;;;;1.77;1.50;;;23.90;28.10;;;;;;4981696;28;45411;-83
2023/12/15 11:38:57;;;;;;;1.55;1.42;;;23.90;28.10;;;;;;5001333;28;45569;-82
2023/12/15 11:41:23;;;;;;;1.88;1.50;;;23.90;28.10;;;;;;4950497;28;45421;-88
2023/12/15 11:43:49;;;;;;;1.87;1.67;;;23.90;28.10;;;;;;4994831;28;45235;-80
2023/12/15 11:46:16;;;;;;;1.70;1.60;;;23.90;28.20;;;;;;4943396;28;45569;-82
2023/12/15 11:48:43;;;;;;;1.80;1.70;;;23.90;28.20;;;;;;4972033;28;46287;-80
2023/12/15 11:51:08;;;;;;;1.90;1.70;;;23.90;28.20;;;;;;4957711;28;46516;-89
2023/12/15 11:53:38;;;;;;;1.70;1.60;;;23.90;28.20;;;;;;4960171;28;46682;-86
2023/12/15 11:56:05;;;;;;;1.80;1.70;;;23.80;28.20;;;;;;4982439;28;45595;-83
2023/12/15 11:58:30;;;;;;;2.40;1.60;;;23.90;28.20;;;;;;4966130;28;47051;-80
2023/12/15 12:00:56;;;;;;;1.75;1.52;;;23.80;28.20;;;;;;4956400;28;46142;-84
2023/12/15 12:03:22;;;;;;;1.80;1.70;;;23.80;28.20;;;;;;5001572;28;45139;-82
2023/12/15 12:05:53;;;;;;;1.77;1.55;;;23.80;28.20;;;;;;5017744;28;45606;-81
2023/12/15 12:08:21;;;;;;;1.73;1.63;;;23.80;28.20;;;;;;5003275;28;45176;-82
2023/12/15 12:10:50;;;;;;;1.92;1.70;;;23.80;28.30;;;;;;4998164;28;45292;-84
2023/12/15 12:13:16;;;;;;;1.93;1.70;;;23.80;28.30;;;;;;4977551;28;45475;-82
2023/12/15 12:16:11;;;;;;;1.95;1.70;;;23.80;28.30;;;;;;4970223;28;45139;-83
2023/12/15 12:18:36;;;;;;;1.95;1.70;;;23.80;28.30;;;;;;5001989;28;45433;-81
2023/12/15 12:21:06;;;;;;;2.20;1.60;;;23.80;28.70;;;;;;4983258;28;45681;-80
2023/12/15 12:23:32;;;;;;;2.97;1.70;;;23.80;28.40;;;;;;4991988;28;45208;-83
2023/12/15 12:25:58;;;;;;;2.00;1.80;;;23.80;28.40;;;;;;4992338;28;45033;-87
2023/12/15 12:28:39;;;;;;;2.42;1.77;;;23.70;28.30;;;;;;4984135;28;46842;-81
2023/12/15 12:31:05;;;;;;;1.92;1.73;;;23.70;28.30;;;;;;4993291;28;45608;-83
2023/12/15 12:33:32;;;;;;;2.40;1.80;;;23.70;28.30;;;;;;5025069;28;45088;-86
2023/12/15 12:35:59;;;;;;;2.10;1.90;;;23.70;28.40;;;;;;4983183;28;44876;-82
2023/12/15 12:38:25;;;;;;;2.07;1.67;;;23.70;28.40;;;;;;5001784;28;46893;-83
2023/12/15 12:40:52;;;;;;;2.13;1.92;;;23.70;28.40;;;;;;4985919;28;45515;-84
2023/12/15 12:43:18;;;;;;;2.28;1.90;;;23.70;28.40;;;;;;5004529;28;45477;-80
2023/12/15 12:45:43;;;;;;;2.33;1.90;;;23.70;28.40;;;;;;5002887;28;45578;-83
2023/12/15 12:48:09;;;;;;;1.65;1.55;;;23.70;28.40;;;;;;4968367;28;45592;-81
2023/12/15 12:50:35;;;;;;;2.55;1.75;;;23.70;28.40;;;;;;4953315;28;45292;-86
2023/12/15 12:53:01;;;;;;;1.70;1.60;;;23.70;28.50;;;;;;4970460;28;44674;-81
2023/12/15 12:55:28;;;;;;;1.90;1.60;;;23.70;28.50;;;;;;4998795;28;45531;-83
2023/12/15 12:57:55;;;;;;;2.35;1.75;;;23.70;28.50;;;;;;4999649;28;45469;-80
2023/12/15 13:00:21;;;;;;;1.90;1.60;;;23.70;28.50;;;;;;4981375;28;45358;-80
2023/12/15 13:02:48;;;;;;;1.92;1.63;;;23.70;28.50;;;;;;4994930;28;45404;-82
2023/12/15 13:05:14;;;;;;;1.70;1.50;;;23.60;28.50;;;;;;4998186;28;45715;-85
2023/12/15 13:07:39;;;;;;;1.95;1.55;;;23.70;28.50;;;;;;4984839;28;46307;-81
2023/12/15 13:10:06;;;;;;;1.70;1.60;;;23.60;28.50;;;;;;5011806;28;45681;-91
2023/12/15 13:12:32;;;;;;;2.00;1.70;;;23.60;28.50;;;;;;4968069;28;45605;-86
2023/12/15 13:14:58;;;;;;;1.70;1.48;;;23.60;28.60;;;;;;4982366;28;44745;-86
2023/12/15 13:17:25;;;;;;;1.63;1.53;;;23.60;28.60;;;;;;4982827;28;46329;-80
2023/12/15 13:19:51;;;;;;;2.45;1.90;;;23.60;28.60;;;;;;5002083;28;45407;-86
2023/12/15 13:22:17;;;;;;;1.83;1.50;;;23.60;28.60;;;;;;4982258;28;45302;-81
2023/12/15 13:24:43;;;;;;;1.57;1.47;;;23.60;28.60;;;;;;4984589;28;44815;-85
2023/12/15 13:27:09;;;;;;;1.67;1.58;;;23.60;28.60;;;;;;4994975;28;45270;-80
2023/12/15 13:29:35;;;;;;;1.60;1.40;;;23.60;28.60;;;;;;4993852;28;45493;-86
2023/12/15 13:32:00;;;;;;;1.90;1.45;;;23.60;28.60;;;;;;4974164;28;45468;-83
2023/12/15 13:34:26;;;;;;;2.00;1.70;;;23.60;28.70;;;;;;4998963;28;44651;-82
2023/12/15 13:36:53;;;;;;;1.60;1.43;;;23.60;28.70;;;;;;4994191;28;45142;-80
2023/12/15 13:39:19;;;;;;;1.67;1.40;;;23.50;28.60;;;;;;4977728;28;45484;-87
2023/12/15 13:41:48;;;;;;;1.50;1.40;;;23.50;28.70;;;;;;4987349;28;45220;-84
2023/12/15 13:44:15;;;;;;;1.73;1.55;;;23.60;28.70;;;;;;4976553;28;44650;-83
2023/12/15 13:46:41;;;;;;;1.58;1.40;;;23.60;28.70;;;;;;4993423;28;46043;-81
2023/12/15 13:49:07;;;;;;;2.13;1.70;;;23.50;28.70;;;;;;4967538;28;45312;-82
2023/12/15 13:51:33;;;;;;;1.83;1.50;;;23.50;28.80;;;;;;4998577;28;45515;-85
2023/12/15 13:54:00;;;;;;;1.50;1.40;;;23.50;28.80;;;;;;4969415;28;45528;-83
2023/12/15 13:56:27;;;;;;;1.48;1.33;;;23.50;28.80;;;;;;4982432;28;47247;-81
2023/12/15 13:58:54;;;;;;;1.73;1.50;;;23.60;28.80;;;;;;4982238;28;45257;-82
2023/12/15 14:01:21;;;;;;;1.63;1.50;;;23.50;28.80;;;;;;4997209;28;45450;-83
2023/12/15 14:03:47;;;;;;;1.33;1.15;;;23.50;28.80;;;;;;4984945;28;45193;-82
2023/12/15 14:06:14;;;;;;;2.00;1.60;;;23.50;28.80;;;;;;5017179;28;45377;-86
2023/12/15 14:08:40;;;;;;;1.52;1.30;;;23.50;28.80;;;;;;4994706;28;45272;-82
2023/12/15 14:11:06;;;;;;;2.17;1.30;;;23.50;28.80;;;;;;5007938;28;45179;-80
2023/12/15 14:13:32;;;;;;;1.43;1.33;;;23.50;28.90;;;;;;4983977;28;44924;-80
2023/12/15 14:16:01;;;;;;;1.52;1.30;;;23.50;28.90;;;;;;4982318;28;45839;-86
2023/12/15 14:18:26;;;;;;;1.48;1.35;;;23.50;28.90;;;;;;5019261;28;45476;-81
2023/12/15 14:20:52;;;;;;;1.80;1.30;;;23.50;28.90;;;;;;4982497;28;45310;-81
2023/12/15 14:23:18;;;;;;;1.63;1.30;;;23.40;28.80;;;;;;5003172;28;45533;-81
2023/12/15 14:25:44;;;;;;;1.20;1.10;;;23.50;28.90;;;;;;5015537;28;45253;-91
2023/12/15 14:28:10;;;;;;;1.38;1.20;;;23.50;28.90;;;;;;4984851;28;45433;-81
2023/12/15 14:30:36;;;;;;;1.75;1.30;;;23.40;28.90;;;;;;4983695;28;45173;-80
2023/12/15 14:33:03;;;;;;;1.45;1.35;;;23.50;29.00;;;;;;5002090;28;45348;-88
2023/12/15 14:35:29;;;;;;;1.57;1.47;;;23.50;29.00;;;;;;4972082;28;45752;-81
2023/12/15 14:37:58;;;;;;;2.63;2.15;;;23.40;28.90;;;;;;4986540;28;44670;-80
2023/12/15 14:40:25;;;;;;;2.23;2.00;;;23.40;29.00;;;;;;5016185;28;44976;-86
2023/12/15 14:42:51;;;;;;;2.85;2.30;;;23.40;29.00;;;;;;4968617;28;44765;-88
2023/12/15 14:45:17;;;;;;;2.53;2.25;;;23.40;29.10;;;;;;4983657;28;45425;-83
2023/12/15 14:47:44;;;;;;;3.10;2.40;;;23.40;29.10;;;;;;4999484;28;44682;-85
2023/12/15 14:50:09;;;;;;;3.13;2.15;;;23.30;29.10;;;;;;4995530;28;45440;-89
2023/12/15 14:52:36;;;;;;;2.25;2.05;;;23.30;29.10;;;;;;4986013;28;45164;-82
2023/12/15 14:55:05;;;;;;;2.40;1.98;;;23.30;29.20;;;;;;4997949;28;45289;-94
2023/12/15 14:57:31;;;;;;;2.67;2.20;;;23.30;29.20;;;;;;4983621;28;45208;-82
2023/12/15 14:59:56;;;;;;;2.67;1.75;;;23.40;29.20;;;;;;5000701;28;45221;-85
2023/12/15 15:02:22;;;;;;;3.07;2.33;;;23.30;29.20;;;;;;4980309;28;45171;-80
2023/12/15 15:04:48;;;;;;;2.80;2.37;;;23.30;29.20;;;;;;4957160;28;46552;-84
2023/12/15 15:07:14;;;;;;;2.43;2.07;;;23.30;29.20;;;;;;5019764;28;44878;-92
2023/12/15 15:09:44;;;;;;;2.58;2.25;;;23.30;29.20;;;;;;4967449;28;45211;-81
2023/12/15 15:12:11;;;;;;;2.73;2.03;;;23.40;29.20;;;;;;5004752;28;45245;-82
2023/12/15 15:14:39;;;;;;;2.72;2.40;;;23.30;29.30;;;;;;4995947;28;45446;-81
2023/12/15 15:17:09;;;;;;;3.00;2.10;;;23.30;29.30;;;;;;5025551;28;44789;-80
2023/12/15 15:19:34;;;;;;;2.30;2.10;;;23.30;29.30;;;;;;5021973;28;45166;-80
2023/12/15 15:22:01;;;;;;;2.22;1.98;;;23.30;29.30;;;;;;4975496;28;44941;-81
2023/12/15 15:24:27;;;;;;;3.60;2.30;;;23.30;29.40;;;;;;4990642;28;46996;-85
2023/12/15 15:26:57;;;;;;;2.30;2.10;;;23.30;29.30;;;;;;5007821;28;44646;-88
2023/12/15 15:29:23;;;;;;;2.42;2.08;;;23.30;29.40;;;;;;5011391;28;45209;-80
2023/12/15 15:31:52;;;;;;;2.97;2.25;;;23.30;29.40;;;;;;5006248;28;45218;-80
2023/12/15 15:34:21;;;;;;;2.40;2.20;;;23.40;29.40;;;;;;5011984;28;45456;-81
2023/12/15 15:36:52;;;;;;;2.40;2.10;;;23.40;29.40;;;;;;5002323;28;45087;-85
2023/12/15 15:39:18;;;;;;;3.10;2.35;;;23.40;29.50;;;;;;5026926;28;45123;-80
2023/12/15 15:41:45;;;;;;;2.40;2.13;;;23.40;29.50;;;;;;4974103;28;45382;-80
2023/12/15 15:44:11;;;;;;;4.60;2.20;;;23.40;29.50;;;;;;5004480;28;46228;-80
2023/12/15 15:46:37;;;;;;;2.42;2.15;;;23.40;29.50;;;;;;4998253;28;45162;-80
2023/12/15 15:49:03;;;;;;;2.60;2.40;;;23.40;29.50;;;;;;5016188;28;45364;-80
2023/12/15 15:51:29;;;;;;;2.40;2.20;;;23.50;29.50;;;;;;4991080;28;45327;-80
2023/12/15 15:53:55;;;;;;;2.53;2.33;;;23.50;29.50;;;;;;4975040;28;46408;-80
2023/12/15 15:56:26;;;;;;;2.30;2.10;;;23.50;29.50;;;;;;4992327;28;45088;-80
2023/12/15 15:59:16;;;;;;;2.90;2.20;;;23.50;30.00;;;;;;5019781;28;44792;-80
2023/12/15 16:01:42;;;;;;;3.15;2.30;;;23.50;29.50;;;;;;4960909;22;45304;-40
2023/12/15 16:04:07;;;;;;;2.47;2.27;;;23.50;29.50;;;;;;4937176;28;45701;-39
2023/12/15 16:06:33;;;;;;;3.57;2.57;;;23.50;29.50;;;;;;4919572;28;45975;-39
2023/12/15 16:08:58;;;;;;;3.13;2.70;;;23.50;29.50;;;;;;4925233;28;45760;-38
2023/12/15 16:11:24;;;;;;;4.23;2.67;;;23.60;29.60;;;;;;4921310;28;45827;-39
2023/12/15 16:13:49;;;;;;;4.33;2.50;;;23.50;29.50;;;;;;4932780;28;45552;-39
2023/12/15 16:16:15;;;;;;;4.82;2.45;;;23.60;29.60;;;;;;4903453;28;45269;-39
2023/12/15 16:18:41;;;;;;;3.97;2.60;;;23.60;29.60;;;;;;4937744;28;46010;-42
2023/12/15 16:21:06;;;;;;;3.13;2.38;;;23.60;29.50;;;;;;4917821;28;45677;-38
2023/12/15 16:23:33;;;;;;;4.23;2.50;;;23.70;29.50;;;;;;4928988;28;45187;-38
2023/12/15 16:25:58;;;;;;;2.75;2.35;;;23.70;29.50;;;;;;4918487;28;45420;-39
2023/12/15 16:28:24;;;;;;;3.15;2.45;;;23.70;29.50;;;;;;4926964;28;45822;-39
2023/12/15 16:30:49;;;;;;;2.75;2.15;;;23.70;29.50;;;;;;4913042;28;45849;-39
2023/12/15 16:33:15;;;;;;;3.17;2.40;;;23.70;29.50;;;;;;4926757;28;46293;-39
2023/12/15 16:35:40;;;;;;;3.85;2.50;;;23.70;29.50;;;;;;4920267;28;45480;-39
2023/12/15 16:38:06;;;;;;;2.80;2.20;;;23.70;29.50;;;;;;4921912;28;45508;-39
2023/12/15 16:40:32;;;;;;;3.00;2.25;;;23.80;29.50;;;;;;4922788;28;45513;-39
2023/12/15 16:42:57;;;;;;;3.00;2.22;;;23.80;29.50;;;;;;4925609;28;45389;-39
2023/12/15 16:45:24;;;;;;;3.10;2.50;;;23.80;29.50;;;;;;4913852;28;45345;-39